createdAt,value
2023-05-15T06:44:52.915Z,16.94
2023-05-15T19:27:18.178Z,19.17
2023-05-15T19:29:45.943Z,19.20
2023-05-15T19:32:13.786Z,19.16
2023-05-15T19:34:41.904Z,19.07
2023-05-15T19:37:09.614Z,18.99
2023-05-15T19:39:37.305Z,18.88
2023-05-15T19:42:05.220Z,18.73
2023-05-15T19:44:34.287Z,18.73
2023-05-15T19:47:01.954Z,18.56
2023-05-15T19:49:29.676Z,18.49
2023-05-15T19:51:57.404Z,18.54
2023-05-15T19:54:25.134Z,18.54
2023-05-15T19:56:52.844Z,18.56
2023-05-15T19:59:20.671Z,18.55
2023-05-15T20:01:49.725Z,18.54
2023-05-15T20:04:17.457Z,18.54
2023-05-15T20:06:45.133Z,18.50
2023-05-15T20:09:12.878Z,18.50
2023-05-15T20:11:40.632Z,18.40
2023-05-15T20:14:08.282Z,18.41
2023-05-15T20:16:36.365Z,18.50
2023-05-15T20:19:06.090Z,18.64
2023-05-15T20:21:33.983Z,18.65
2023-05-15T20:24:01.747Z,18.68
2023-05-15T20:26:29.581Z,18.71
2023-05-15T20:28:57.439Z,18.68
2023-05-15T20:31:25.192Z,18.70
2023-05-15T20:33:52.951Z,18.63
2023-05-15T20:36:22.782Z,18.63
2023-05-15T20:38:50.566Z,18.68
2023-05-15T20:41:18.907Z,18.64
2023-05-15T20:43:47.541Z,18.64
2023-05-15T20:46:15.534Z,18.62
2023-05-15T20:48:43.474Z,18.60
2023-05-15T20:51:11.240Z,18.61
2023-05-15T20:53:40.648Z,18.63
2023-05-15T20:56:08.493Z,18.57
2023-05-15T20:58:36.289Z,18.56
2023-05-15T21:01:04.110Z,18.52
2023-05-15T21:03:31.814Z,18.48
2023-05-15T21:05:59.642Z,18.55
2023-05-15T21:08:28.552Z,18.50
2023-05-15T21:10:57.731Z,18.46
2023-05-15T21:13:27.575Z,18.37
2023-05-15T21:15:55.292Z,18.45
2023-05-15T21:18:23.928Z,18.45
2023-05-15T21:20:51.685Z,18.48
2023-05-15T21:23:21.763Z,18.38
2023-05-15T21:25:49.597Z,18.38
2023-05-15T21:28:18.655Z,18.39
2023-05-15T21:30:46.564Z,18.40
2023-05-15T21:33:14.237Z,18.35
2023-05-15T21:35:42.058Z,18.34
2023-05-15T21:38:09.766Z,18.38
2023-05-15T21:40:37.683Z,18.36
2023-05-15T21:43:05.440Z,18.38
2023-05-15T21:45:34.626Z,18.26
2023-05-15T21:48:02.737Z,18.24
2023-05-15T21:50:30.422Z,18.26
2023-05-15T21:52:58.137Z,18.12
2023-05-15T21:55:26.213Z,18.20
2023-05-15T21:57:54.085Z,18.16
2023-05-15T22:00:21.912Z,18.17
2023-05-15T22:02:51.254Z,18.15
2023-05-15T22:05:19.136Z,18.13
2023-05-15T22:07:46.916Z,18.04
2023-05-15T22:10:16.537Z,18.06
2023-05-15T22:12:44.754Z,18.03
2023-05-15T22:15:14.453Z,17.96
2023-05-15T22:17:42.300Z,17.95
2023-05-15T22:20:13.309Z,17.92
2023-05-15T22:22:42.988Z,17.93
2023-05-15T22:25:11.084Z,17.93
2023-05-15T22:27:38.903Z,17.95
2023-05-15T22:30:08.623Z,17.89
2023-05-15T22:32:36.332Z,17.93
2023-05-15T22:35:04.581Z,17.83
2023-05-15T22:37:33.711Z,17.89
2023-05-15T22:40:01.673Z,17.81
2023-05-15T22:42:29.473Z,17.78
2023-05-15T22:44:57.875Z,17.74
2023-05-15T22:47:26.184Z,17.75
2023-05-15T22:49:54.033Z,17.78
2023-05-15T22:52:21.938Z,17.81
2023-05-15T22:54:51.076Z,17.74
2023-05-15T22:57:19.019Z,17.70
2023-05-15T22:59:46.788Z,17.67
2023-05-15T23:02:14.580Z,17.68
2023-05-15T23:04:43.415Z,17.63
2023-05-15T23:07:11.117Z,17.59
2023-05-15T23:09:38.791Z,17.70
2023-05-15T23:12:08.527Z,17.59
2023-05-15T23:14:36.188Z,17.62
2023-05-15T23:17:04.131Z,17.60
2023-05-15T23:19:31.934Z,17.61
2023-05-15T23:21:59.618Z,17.62
2023-05-15T23:24:27.299Z,17.58
2023-05-15T23:26:55.094Z,17.55
2023-05-15T23:29:24.446Z,17.63
2023-05-15T23:31:52.327Z,17.58
2023-05-15T23:34:19.978Z,17.56
2023-05-15T23:36:47.681Z,17.62
2023-05-15T23:39:15.919Z,17.51
2023-05-15T23:41:43.566Z,17.48
2023-05-15T23:44:11.313Z,17.56
2023-05-15T23:46:40.345Z,17.52
2023-05-15T23:49:08.054Z,17.46
2023-05-15T23:51:35.865Z,17.50
2023-05-15T23:54:03.598Z,17.49
2023-05-15T23:56:31.613Z,17.43
2023-05-15T23:58:59.270Z,17.38
